sensor_id;sensor_type;location;lat;lon;timestamp;P1;durP1;ratioP1;P2;durP2;ratioP2
23304;SDS011;11821;51.456;8.844;2022-11-15T00:02:00;16.90;;;13.20;;
23304;SDS011;11821;51.456;8.844;2022-11-15T00:04:45;14.90;;;13.35;;
23304;SDS011;11821;51.456;8.844;2022-11-15T00:07:29;16.98;;;13.73;;
23304;SDS011;11821;51.456;8.844;2022-11-15T00:10:14;18.25;;;14.32;;
23304;SDS011;11821;51.456;8.844;2022-11-15T00:12:59;23.83;;;15.05;;
23304;SDS011;11821;51.456;8.844;2022-11-15T00:15:44;20.20;;;15.25;;
23304;SDS011;11821;51.456;8.844;2022-11-15T00:18:28;27.17;;;15.02;;
23304;SDS011;11821;51.456;8.844;2022-11-15T00:21:14;19.98;;;14.20;;
23304;SDS011;11821;51.456;8.844;2022-11-15T00:24:00;17.15;;;14.23;;
23304;SDS011;11821;51.456;8.844;2022-11-15T00:26:44;21.55;;;16.45;;
23304;SDS011;11821;51.456;8.844;2022-11-15T00:29:29;21.35;;;16.05;;
23304;SDS011;11821;51.456;8.844;2022-11-15T00:32:13;21.10;;;15.15;;
23304;SDS011;11821;51.456;8.844;2022-11-15T00:34:57;19.48;;;16.23;;
23304;SDS011;11821;51.456;8.844;2022-11-15T00:37:42;19.50;;;15.75;;
23304;SDS011;11821;51.456;8.844;2022-11-15T00:40:27;24.38;;;16.65;;
23304;SDS011;11821;51.456;8.844;2022-11-15T00:43:12;26.30;;;17.75;;
23304;SDS011;11821;51.456;8.844;2022-11-15T00:45:57;20.90;;;14.98;;
23304;SDS011;11821;51.456;8.844;2022-11-15T00:48:42;22.23;;;16.70;;
23304;SDS011;11821;51.456;8.844;2022-11-15T00:51:26;22.80;;;17.00;;
23304;SDS011;11821;51.456;8.844;2022-11-15T00:54:11;22.17;;;16.75;;
23304;SDS011;11821;51.456;8.844;2022-11-15T00:56:56;21.90;;;16.83;;
23304;SDS011;11821;51.456;8.844;2022-11-15T00:59:40;22.33;;;16.15;;
23304;SDS011;11821;51.456;8.844;2022-11-15T01:02:26;22.67;;;17.38;;
23304;SDS011;11821;51.456;8.844;2022-11-15T01:05:12;25.95;;;16.85;;
23304;SDS011;11821;51.456;8.844;2022-11-15T01:07:56;19.27;;;15.32;;
23304;SDS011;11821;51.456;8.844;2022-11-15T01:10:40;22.38;;;17.17;;
23304;SDS011;11821;51.456;8.844;2022-11-15T01:13:25;21.85;;;16.83;;
23304;SDS011;11821;51.456;8.844;2022-11-15T01:16:14;26.08;;;16.85;;
23304;SDS011;11821;51.456;8.844;2022-11-15T01:19:02;29.25;;;17.75;;
23304;SDS011;11821;51.456;8.844;2022-11-15T01:21:51;25.80;;;18.63;;
23304;SDS011;11821;51.456;8.844;2022-11-15T01:24:35;20.00;;;17.15;;
23304;SDS011;11821;51.456;8.844;2022-11-15T01:27:20;22.65;;;17.20;;
23304;SDS011;11821;51.456;8.844;2022-11-15T01:30:06;28.00;;;17.88;;
23304;SDS011;11821;51.456;8.844;2022-11-15T01:32:52;22.95;;;17.98;;
23304;SDS011;11821;51.456;8.844;2022-11-15T01:35:38;18.92;;;16.83;;
23304;SDS011;11821;51.456;8.844;2022-11-15T01:38:24;25.02;;;17.50;;
23304;SDS011;11821;51.456;8.844;2022-11-15T01:41:19;22.40;;;16.25;;
23304;SDS011;11821;51.456;8.844;2022-11-15T01:47:31;29.23;;;18.35;;
23304;SDS011;11821;51.456;8.844;2022-11-15T01:50:30;19.63;;;14.20;;
23304;SDS011;11821;51.456;8.844;2022-11-15T01:53:17;19.13;;;15.18;;
23304;SDS011;11821;51.456;8.844;2022-11-15T01:56:04;20.58;;;13.88;;
23304;SDS011;11821;51.456;8.844;2022-11-15T01:58:52;17.00;;;13.10;;
23304;SDS011;11821;51.456;8.844;2022-11-15T02:01:39;18.42;;;12.95;;
23304;SDS011;11821;51.456;8.844;2022-11-15T02:04:28;18.65;;;13.98;;
23304;SDS011;11821;51.456;8.844;2022-11-15T02:07:16;17.48;;;14.07;;
23304;SDS011;11821;51.456;8.844;2022-11-15T02:10:13;19.60;;;14.52;;
23304;SDS011;11821;51.456;8.844;2022-11-15T02:13:01;17.50;;;12.88;;
23304;SDS011;11821;51.456;8.844;2022-11-15T02:15:59;19.13;;;14.38;;
23304;SDS011;11821;51.456;8.844;2022-11-15T02:25:36;15.48;;;13.70;;
23304;SDS011;11821;51.456;8.844;2022-11-15T02:37:44;16.27;;;13.75;;
23304;SDS011;11821;51.456;8.844;2022-11-15T02:40:45;19.38;;;14.43;;
23304;SDS011;11821;51.456;8.844;2022-11-15T02:44:30;18.27;;;14.63;;
23304;SDS011;11821;51.456;8.844;2022-11-15T02:47:17;20.95;;;13.27;;
23304;SDS011;11821;51.456;8.844;2022-11-15T02:50:07;21.35;;;15.27;;
23304;SDS011;11821;51.456;8.844;2022-11-15T02:52:54;22.90;;;14.90;;
23304;SDS011;11821;51.456;8.844;2022-11-15T02:55:43;16.33;;;14.63;;
23304;SDS011;11821;51.456;8.844;2022-11-15T03:01:51;17.48;;;14.50;;
23304;SDS011;11821;51.456;8.844;2022-11-15T03:05:06;20.70;;;13.10;;
23304;SDS011;11821;51.456;8.844;2022-11-15T03:09:05;21.80;;;14.27;;
23304;SDS011;11821;51.456;8.844;2022-11-15T03:11:23;16.38;;;14.25;;
23304;SDS011;11821;51.456;8.844;2022-11-15T03:14:22;16.95;;;14.55;;
23304;SDS011;11821;51.456;8.844;2022-11-15T03:20:04;17.75;;;15.40;;
23304;SDS011;11821;51.456;8.844;2022-11-15T03:22:53;20.70;;;13.45;;
23304;SDS011;11821;51.456;8.844;2022-11-15T03:25:41;18.45;;;13.75;;
23304;SDS011;11821;51.456;8.844;2022-11-15T03:28:35;14.75;;;12.88;;
23304;SDS011;11821;51.456;8.844;2022-11-15T03:31:25;16.17;;;13.70;;
23304;SDS011;11821;51.456;8.844;2022-11-15T03:34:34;15.27;;;11.48;;
23304;SDS011;11821;51.456;8.844;2022-11-15T03:37:36;12.07;;;10.32;;
23304;SDS011;11821;51.456;8.844;2022-11-15T03:40:27;17.75;;;13.30;;
23304;SDS011;11821;51.456;8.844;2022-11-15T03:43:25;19.40;;;12.90;;
23304;SDS011;11821;51.456;8.844;2022-11-15T03:46:32;16.10;;;13.45;;
23304;SDS011;11821;51.456;8.844;2022-11-15T03:49:27;15.23;;;11.85;;
23304;SDS011;11821;51.456;8.844;2022-11-15T03:52:17;14.30;;;11.20;;
23304;SDS011;11821;51.456;8.844;2022-11-15T03:55:03;18.05;;;12.93;;
23304;SDS011;11821;51.456;8.844;2022-11-15T03:57:50;14.75;;;12.95;;
23304;SDS011;11821;51.456;8.844;2022-11-15T04:00:38;14.20;;;12.75;;
23304;SDS011;11821;51.456;8.844;2022-11-15T04:03:22;14.13;;;11.80;;
23304;SDS011;11821;51.456;8.844;2022-11-15T04:06:07;15.13;;;13.63;;
23304;SDS011;11821;51.456;8.844;2022-11-15T04:08:52;14.52;;;12.88;;
23304;SDS011;11821;51.456;8.844;2022-11-15T04:11:36;18.33;;;13.82;;
23304;SDS011;11821;51.456;8.844;2022-11-15T04:14:21;15.57;;;13.63;;
23304;SDS011;11821;51.456;8.844;2022-11-15T04:17:05;16.65;;;13.38;;
23304;SDS011;11821;51.456;8.844;2022-11-15T04:19:49;15.13;;;12.65;;
23304;SDS011;11821;51.456;8.844;2022-11-15T04:22:54;19.27;;;13.75;;
23304;SDS011;11821;51.456;8.844;2022-11-15T04:26:00;15.18;;;12.73;;
23304;SDS011;11821;51.456;8.844;2022-11-15T04:28:47;13.52;;;11.88;;
23304;SDS011;11821;51.456;8.844;2022-11-15T04:31:51;22.25;;;13.00;;
23304;SDS011;11821;51.456;8.844;2022-11-15T04:34:36;13.50;;;11.75;;
23304;SDS011;11821;51.456;8.844;2022-11-15T04:37:22;13.93;;;11.82;;
23304;SDS011;11821;51.456;8.844;2022-11-15T04:40:07;13.68;;;11.75;;
23304;SDS011;11821;51.456;8.844;2022-11-15T04:42:52;15.70;;;11.45;;
23304;SDS011;11821;51.456;8.844;2022-11-15T04:45:37;14.63;;;11.20;;
23304;SDS011;11821;51.456;8.844;2022-11-15T04:48:21;14.77;;;11.80;;
23304;SDS011;11821;51.456;8.844;2022-11-15T04:51:06;12.52;;;10.70;;
23304;SDS011;11821;51.456;8.844;2022-11-15T04:53:51;12.70;;;10.65;;
23304;SDS011;11821;51.456;8.844;2022-11-15T04:56:35;11.90;;;10.57;;
23304;SDS011;11821;51.456;8.844;2022-11-15T04:59:20;11.48;;;10.27;;
23304;SDS011;11821;51.456;8.844;2022-11-15T05:02:04;13.50;;;10.55;;
23304;SDS011;11821;51.456;8.844;2022-11-15T05:04:49;10.20;;;9.20;;
23304;SDS011;11821;51.456;8.844;2022-11-15T05:07:34;10.15;;;9.13;;
23304;SDS011;11821;51.456;8.844;2022-11-15T05:10:18;11.05;;;8.80;;
23304;SDS011;11821;51.456;8.844;2022-11-15T05:13:03;9.45;;;8.02;;
23304;SDS011;11821;51.456;8.844;2022-11-15T05:15:47;11.48;;;9.05;;
23304;SDS011;11821;51.456;8.844;2022-11-15T05:18:32;10.25;;;8.95;;
23304;SDS011;11821;51.456;8.844;2022-11-15T05:21:17;9.77;;;8.43;;
23304;SDS011;11821;51.456;8.844;2022-11-15T05:24:03;11.02;;;8.55;;
23304;SDS011;11821;51.456;8.844;2022-11-15T05:26:47;10.55;;;8.05;;
23304;SDS011;11821;51.456;8.844;2022-11-15T05:29:32;8.57;;;7.78;;
23304;SDS011;11821;51.456;8.844;2022-11-15T05:32:16;8.40;;;7.60;;
23304;SDS011;11821;51.456;8.844;2022-11-15T05:35:02;9.88;;;7.93;;
23304;SDS011;11821;51.456;8.844;2022-11-15T05:37:49;8.77;;;7.90;;
23304;SDS011;11821;51.456;8.844;2022-11-15T05:40:34;10.25;;;8.48;;
23304;SDS011;11821;51.456;8.844;2022-11-15T05:43:19;9.55;;;7.50;;
23304;SDS011;11821;51.456;8.844;2022-11-15T05:46:04;11.60;;;9.02;;
23304;SDS011;11821;51.456;8.844;2022-11-15T05:48:50;10.60;;;9.45;;
23304;SDS011;11821;51.456;8.844;2022-11-15T05:51:36;12.65;;;11.35;;
23304;SDS011;11821;51.456;8.844;2022-11-15T05:54:22;10.00;;;8.55;;
23304;SDS011;11821;51.456;8.844;2022-11-15T05:57:08;12.52;;;8.35;;
23304;SDS011;11821;51.456;8.844;2022-11-15T05:59:52;9.25;;;7.97;;
23304;SDS011;11821;51.456;8.844;2022-11-15T06:02:38;9.00;;;8.10;;
23304;SDS011;11821;51.456;8.844;2022-11-15T06:05:22;10.18;;;8.52;;
23304;SDS011;11821;51.456;8.844;2022-11-15T06:08:07;10.30;;;8.70;;
23304;SDS011;11821;51.456;8.844;2022-11-15T06:10:51;12.00;;;9.15;;
23304;SDS011;11821;51.456;8.844;2022-11-15T06:13:36;9.70;;;8.43;;
23304;SDS011;11821;51.456;8.844;2022-11-15T06:16:20;9.57;;;8.35;;
23304;SDS011;11821;51.456;8.844;2022-11-15T06:19:05;9.73;;;8.75;;
23304;SDS011;11821;51.456;8.844;2022-11-15T06:21:51;8.27;;;7.38;;
23304;SDS011;11821;51.456;8.844;2022-11-15T06:24:35;9.50;;;8.35;;
23304;SDS011;11821;51.456;8.844;2022-11-15T06:27:20;8.43;;;7.30;;
23304;SDS011;11821;51.456;8.844;2022-11-15T06:30:04;10.07;;;7.85;;
23304;SDS011;11821;51.456;8.844;2022-11-15T06:32:49;8.68;;;7.80;;
23304;SDS011;11821;51.456;8.844;2022-11-15T06:35:35;8.55;;;7.25;;
23304;SDS011;11821;51.456;8.844;2022-11-15T06:38:20;9.82;;;8.10;;
23304;SDS011;11821;51.456;8.844;2022-11-15T06:41:06;8.30;;;7.50;;
23304;SDS011;11821;51.456;8.844;2022-11-15T06:43:52;8.63;;;7.70;;
23304;SDS011;11821;51.456;8.844;2022-11-15T06:46:37;10.02;;;9.02;;
23304;SDS011;11821;51.456;8.844;2022-11-15T06:49:21;9.27;;;8.30;;
23304;SDS011;11821;51.456;8.844;2022-11-15T06:52:06;9.55;;;8.57;;
23304;SDS011;11821;51.456;8.844;2022-11-15T06:54:50;9.38;;;8.40;;
23304;SDS011;11821;51.456;8.844;2022-11-15T06:57:35;9.15;;;8.20;;
23304;SDS011;11821;51.456;8.844;2022-11-15T07:00:21;9.73;;;7.38;;
23304;SDS011;11821;51.456;8.844;2022-11-15T07:03:06;12.13;;;8.25;;
23304;SDS011;11821;51.456;8.844;2022-11-15T07:05:55;11.60;;;8.80;;
23304;SDS011;11821;51.456;8.844;2022-11-15T07:08:41;9.20;;;8.13;;
23304;SDS011;11821;51.456;8.844;2022-11-15T07:11:25;9.35;;;8.43;;
23304;SDS011;11821;51.456;8.844;2022-11-15T07:14:10;11.25;;;9.80;;
23304;SDS011;11821;51.456;8.844;2022-11-15T07:16:55;8.98;;;8.18;;
23304;SDS011;11821;51.456;8.844;2022-11-15T07:19:40;11.25;;;9.10;;
23304;SDS011;11821;51.456;8.844;2022-11-15T07:22:24;8.60;;;7.68;;
23304;SDS011;11821;51.456;8.844;2022-11-15T07:25:09;8.57;;;7.68;;
23304;SDS011;11821;51.456;8.844;2022-11-15T07:27:54;7.20;;;6.50;;
23304;SDS011;11821;51.456;8.844;2022-11-15T07:30:40;8.98;;;7.82;;
23304;SDS011;11821;51.456;8.844;2022-11-15T07:33:35;11.95;;;8.60;;
23304;SDS011;11821;51.456;8.844;2022-11-15T07:36:20;8.10;;;7.30;;
23304;SDS011;11821;51.456;8.844;2022-11-15T07:39:04;8.07;;;7.30;;
23304;SDS011;11821;51.456;8.844;2022-11-15T07:41:49;9.77;;;6.47;;
23304;SDS011;11821;51.456;8.844;2022-11-15T07:44:53;7.72;;;6.95;;
23304;SDS011;11821;51.456;8.844;2022-11-15T07:47:38;8.57;;;5.88;;
23304;SDS011;11821;51.456;8.844;2022-11-15T07:50:23;8.85;;;6.40;;
23304;SDS011;11821;51.456;8.844;2022-11-15T07:53:08;8.70;;;6.28;;
23304;SDS011;11821;51.456;8.844;2022-11-15T07:55:54;7.70;;;6.43;;
23304;SDS011;11821;51.456;8.844;2022-11-15T07:58:39;6.97;;;6.35;;
23304;SDS011;11821;51.456;8.844;2022-11-15T08:01:24;6.13;;;5.07;;
23304;SDS011;11821;51.456;8.844;2022-11-15T08:04:10;6.78;;;5.38;;
23304;SDS011;11821;51.456;8.844;2022-11-15T08:06:55;4.82;;;4.43;;
23304;SDS011;11821;51.456;8.844;2022-11-15T08:09:41;8.00;;;5.32;;
23304;SDS011;11821;51.456;8.844;2022-11-15T08:12:25;6.05;;;4.63;;
23304;SDS011;11821;51.456;8.844;2022-11-15T08:15:10;6.40;;;4.68;;
23304;SDS011;11821;51.456;8.844;2022-11-15T08:17:56;5.57;;;4.32;;
23304;SDS011;11821;51.456;8.844;2022-11-15T08:20:42;8.68;;;5.43;;
23304;SDS011;11821;51.456;8.844;2022-11-15T08:23:27;5.50;;;4.93;;
23304;SDS011;11821;51.456;8.844;2022-11-15T08:26:12;6.00;;;4.75;;
23304;SDS011;11821;51.456;8.844;2022-11-15T08:28:57;5.22;;;4.45;;
23304;SDS011;11821;51.456;8.844;2022-11-15T08:31:41;5.00;;;3.88;;
23304;SDS011;11821;51.456;8.844;2022-11-15T08:34:26;6.18;;;4.43;;
23304;SDS011;11821;51.456;8.844;2022-11-15T08:37:11;5.00;;;4.13;;
23304;SDS011;11821;51.456;8.844;2022-11-15T08:39:55;4.45;;;3.35;;
23304;SDS011;11821;51.456;8.844;2022-11-15T08:42:40;4.78;;;3.67;;
23304;SDS011;11821;51.456;8.844;2022-11-15T08:45:24;5.43;;;3.97;;
23304;SDS011;11821;51.456;8.844;2022-11-15T08:48:09;4.57;;;3.90;;
23304;SDS011;11821;51.456;8.844;2022-11-15T08:50:54;4.60;;;3.75;;
23304;SDS011;11821;51.456;8.844;2022-11-15T08:53:40;4.95;;;3.83;;
23304;SDS011;11821;51.456;8.844;2022-11-15T08:56:25;6.30;;;4.28;;
23304;SDS011;11821;51.456;8.844;2022-11-15T08:59:10;6.15;;;4.75;;
23304;SDS011;11821;51.456;8.844;2022-11-15T09:01:55;6.45;;;4.35;;
23304;SDS011;11821;51.456;8.844;2022-11-15T09:04:40;4.88;;;3.70;;
23304;SDS011;11821;51.456;8.844;2022-11-15T09:07:26;7.10;;;4.03;;
23304;SDS011;11821;51.456;8.844;2022-11-15T09:10:14;3.47;;;3.17;;
23304;SDS011;11821;51.456;8.844;2022-11-15T09:12:59;4.15;;;3.47;;
23304;SDS011;11821;51.456;8.844;2022-11-15T09:15:46;4.03;;;3.42;;
23304;SDS011;11821;51.456;8.844;2022-11-15T09:18:31;4.63;;;2.83;;
23304;SDS011;11821;51.456;8.844;2022-11-15T09:21:15;3.45;;;3.10;;
23304;SDS011;11821;51.456;8.844;2022-11-15T09:24:00;3.63;;;3.30;;
23304;SDS011;11821;51.456;8.844;2022-11-15T09:26:45;2.65;;;2.40;;
23304;SDS011;11821;51.456;8.844;2022-11-15T09:29:29;3.47;;;2.25;;
23304;SDS011;11821;51.456;8.844;2022-11-15T09:32:14;2.80;;;2.40;;
23304;SDS011;11821;51.456;8.844;2022-11-15T09:34:58;4.28;;;3.10;;
23304;SDS011;11821;51.456;8.844;2022-11-15T09:37:43;4.22;;;2.95;;
23304;SDS011;11821;51.456;8.844;2022-11-15T09:40:29;3.72;;;2.58;;
23304;SDS011;11821;51.456;8.844;2022-11-15T09:46:16;4.40;;;3.70;;
23304;SDS011;11821;51.456;8.844;2022-11-15T09:49:08;10.98;;;6.47;;
23304;SDS011;11821;51.456;8.844;2022-11-15T09:52:03;6.15;;;4.45;;
23304;SDS011;11821;51.456;8.844;2022-11-15T09:57:20;7.30;;;3.47;;
23304;SDS011;11821;51.456;8.844;2022-11-15T10:02:27;6.47;;;4.25;;
23304;SDS011;11821;51.456;8.844;2022-11-15T10:04:57;5.47;;;4.07;;
23304;SDS011;11821;51.456;8.844;2022-11-15T10:07:33;4.13;;;3.55;;
23304;SDS011;11821;51.456;8.844;2022-11-15T10:10:15;5.22;;;3.97;;
23304;SDS011;11821;51.456;8.844;2022-11-15T10:12:58;5.27;;;3.70;;
23304;SDS011;11821;51.456;8.844;2022-11-15T10:15:24;4.90;;;3.17;;
23304;SDS011;11821;51.456;8.844;2022-11-15T10:20:54;5.30;;;4.03;;
23304;SDS011;11821;51.456;8.844;2022-11-15T10:23:24;6.07;;;4.47;;
23304;SDS011;11821;51.456;8.844;2022-11-15T10:25:53;3.53;;;2.80;;
23304;SDS011;11821;51.456;8.844;2022-11-15T10:28:26;3.45;;;2.75;;
23304;SDS011;11821;51.456;8.844;2022-11-15T10:30:55;6.45;;;4.95;;
23304;SDS011;11821;51.456;8.844;2022-11-15T10:33:33;4.35;;;2.10;;
23304;SDS011;11821;51.456;8.844;2022-11-15T10:41:14;4.05;;;2.78;;
23304;SDS011;11821;51.456;8.844;2022-11-15T10:46:45;4.72;;;3.50;;
23304;SDS011;11821;51.456;8.844;2022-11-15T10:49:26;7.95;;;5.88;;
23304;SDS011;11821;51.456;8.844;2022-11-15T10:52:04;4.13;;;3.40;;
23304;SDS011;11821;51.456;8.844;2022-11-15T10:57:38;5.38;;;3.50;;
23304;SDS011;11821;51.456;8.844;2022-11-15T11:00:06;3.55;;;3.00;;
23304;SDS011;11821;51.456;8.844;2022-11-15T11:05:32;4.07;;;3.20;;
23304;SDS011;11821;51.456;8.844;2022-11-15T11:08:04;9.50;;;7.35;;
23304;SDS011;11821;51.456;8.844;2022-11-15T11:10:55;4.78;;;3.60;;
23304;SDS011;11821;51.456;8.844;2022-11-15T11:26:56;14.83;;;7.13;;
23304;SDS011;11821;51.456;8.844;2022-11-15T11:37:56;4.05;;;3.10;;
23304;SDS011;11821;51.456;8.844;2022-11-15T11:40:35;7.25;;;4.60;;
23304;SDS011;11821;51.456;8.844;2022-11-15T11:51:12;2.95;;;2.70;;
23304;SDS011;11821;51.456;8.844;2022-11-15T11:56:55;10.93;;;5.10;;
23304;SDS011;11821;51.456;8.844;2022-11-15T11:59:16;2.90;;;2.60;;
23304;SDS011;11821;51.456;8.844;2022-11-15T12:01:45;4.85;;;3.80;;
23304;SDS011;11821;51.456;8.844;2022-11-15T12:04:13;5.63;;;3.33;;
23304;SDS011;11821;51.456;8.844;2022-11-15T12:07:15;2.60;;;2.40;;
23304;SDS011;11821;51.456;8.844;2022-11-15T12:15:39;6.80;;;3.33;;
23304;SDS011;11821;51.456;8.844;2022-11-15T12:18:14;4.78;;;3.83;;
23304;SDS011;11821;51.456;8.844;2022-11-15T12:20:49;2.70;;;2.50;;
23304;SDS011;11821;51.456;8.844;2022-11-15T12:23:27;5.57;;;3.83;;
23304;SDS011;11821;51.456;8.844;2022-11-15T12:26:04;4.30;;;2.00;;
23304;SDS011;11821;51.456;8.844;2022-11-15T12:33:44;5.97;;;3.08;;
23304;SDS011;11821;51.456;8.844;2022-11-15T12:41:29;2.97;;;1.73;;
23304;SDS011;11821;51.456;8.844;2022-11-15T12:43:57;7.63;;;4.75;;
23304;SDS011;11821;51.456;8.844;2022-11-15T13:12:56;3.28;;;1.90;;
23304;SDS011;11821;51.456;8.844;2022-11-15T13:16:01;1.90;;;1.45;;
23304;SDS011;11821;51.456;8.844;2022-11-15T13:18:32;12.68;;;6.00;;
23304;SDS011;11821;51.456;8.844;2022-11-15T13:21:17;11.63;;;4.32;;
23304;SDS011;11821;51.456;8.844;2022-11-15T13:24:04;15.68;;;5.25;;
23304;SDS011;11821;51.456;8.844;2022-11-15T13:26:37;3.22;;;1.95;;
23304;SDS011;11821;51.456;8.844;2022-11-15T13:29:04;4.47;;;2.10;;
23304;SDS011;11821;51.456;8.844;2022-11-15T13:31:42;9.43;;;4.57;;
23304;SDS011;11821;51.456;8.844;2022-11-15T13:34:18;11.30;;;5.50;;
23304;SDS011;11821;51.456;8.844;2022-11-15T13:36:58;4.50;;;2.20;;
23304;SDS011;11821;51.456;8.844;2022-11-15T13:41:53;3.13;;;2.05;;
23304;SDS011;11821;51.456;8.844;2022-11-15T13:44:37;6.13;;;2.78;;
23304;SDS011;11821;51.456;8.844;2022-11-15T13:47:05;10.55;;;5.72;;
23304;SDS011;11821;51.456;8.844;2022-11-15T13:49:41;4.78;;;2.53;;
23304;SDS011;11821;51.456;8.844;2022-11-15T13:52:09;2.22;;;1.10;;
23304;SDS011;11821;51.456;8.844;2022-11-15T13:57:54;2.47;;;1.45;;
23304;SDS011;11821;51.456;8.844;2022-11-15T14:00:42;3.30;;;2.65;;
23304;SDS011;11821;51.456;8.844;2022-11-15T14:11:29;2.08;;;1.60;;
23304;SDS011;11821;51.456;8.844;2022-11-15T14:16:54;2.75;;;2.00;;
23304;SDS011;11821;51.456;8.844;2022-11-15T14:30:40;2.60;;;1.73;;
23304;SDS011;11821;51.456;8.844;2022-11-15T14:36:06;1.42;;;1.30;;
23304;SDS011;11821;51.456;8.844;2022-11-15T14:38:43;2.35;;;1.30;;
23304;SDS011;11821;51.456;8.844;2022-11-15T14:41:23;3.83;;;3.45;;
23304;SDS011;11821;51.456;8.844;2022-11-15T14:43:53;3.63;;;2.03;;
23304;SDS011;11821;51.456;8.844;2022-11-15T14:46:19;2.55;;;2.05;;
23304;SDS011;11821;51.456;8.844;2022-11-15T14:48:45;4.20;;;1.80;;
23304;SDS011;11821;51.456;8.844;2022-11-15T14:51:20;3.80;;;2.40;;
23304;SDS011;11821;51.456;8.844;2022-11-15T14:53:47;4.45;;;2.45;;
23304;SDS011;11821;51.456;8.844;2022-11-15T14:56:14;1.77;;;1.45;;
23304;SDS011;11821;51.456;8.844;2022-11-15T14:58:41;2.15;;;1.50;;
23304;SDS011;11821;51.456;8.844;2022-11-15T15:01:10;3.83;;;1.70;;
23304;SDS011;11821;51.456;8.844;2022-11-15T15:03:49;24.25;;;6.55;;
23304;SDS011;11821;51.456;8.844;2022-11-15T15:06:18;2.33;;;1.90;;
23304;SDS011;11821;51.456;8.844;2022-11-15T15:08:45;3.42;;;1.70;;
23304;SDS011;11821;51.456;8.844;2022-11-15T15:11:21;36.95;;;26.60;;
23304;SDS011;11821;51.456;8.844;2022-11-15T15:13:52;2.40;;;1.83;;
23304;SDS011;11821;51.456;8.844;2022-11-15T15:16:22;13.10;;;9.05;;
23304;SDS011;11821;51.456;8.844;2022-11-15T15:18:52;2.88;;;2.25;;
23304;SDS011;11821;51.456;8.844;2022-11-15T15:21:25;2.95;;;2.60;;
23304;SDS011;11821;51.456;8.844;2022-11-15T15:23:53;2.72;;;1.88;;
23304;SDS011;11821;51.456;8.844;2022-11-15T15:26:20;6.47;;;5.85;;
23304;SDS011;11821;51.456;8.844;2022-11-15T15:28:47;4.95;;;2.20;;
23304;SDS011;11821;51.456;8.844;2022-11-15T15:31:14;4.70;;;2.30;;
23304;SDS011;11821;51.456;8.844;2022-11-15T15:33:40;3.40;;;2.17;;
23304;SDS011;11821;51.456;8.844;2022-11-15T15:36:13;1.85;;;1.75;;
23304;SDS011;11821;51.456;8.844;2022-11-15T15:38:42;3.45;;;2.22;;
23304;SDS011;11821;51.456;8.844;2022-11-15T15:41:11;3.40;;;2.53;;
23304;SDS011;11821;51.456;8.844;2022-11-15T15:43:38;3.72;;;3.22;;
23304;SDS011;11821;51.456;8.844;2022-11-15T15:46:07;3.92;;;2.53;;
23304;SDS011;11821;51.456;8.844;2022-11-15T15:48:35;2.95;;;2.42;;
23304;SDS011;11821;51.456;8.844;2022-11-15T15:51:02;4.47;;;3.17;;
23304;SDS011;11821;51.456;8.844;2022-11-15T15:53:29;3.85;;;2.90;;
23304;SDS011;11821;51.456;8.844;2022-11-15T15:55:56;2.42;;;2.22;;
23304;SDS011;11821;51.456;8.844;2022-11-15T15:58:22;3.40;;;2.60;;
23304;SDS011;11821;51.456;8.844;2022-11-15T16:00:49;2.80;;;2.08;;
23304;SDS011;11821;51.456;8.844;2022-11-15T16:03:15;4.70;;;2.55;;
23304;SDS011;11821;51.456;8.844;2022-11-15T16:05:41;2.22;;;1.92;;
23304;SDS011;11821;51.456;8.844;2022-11-15T16:08:21;2.92;;;2.08;;
23304;SDS011;11821;51.456;8.844;2022-11-15T16:10:49;3.65;;;2.60;;
23304;SDS011;11821;51.456;8.844;2022-11-15T16:13:15;3.42;;;3.13;;
23304;SDS011;11821;51.456;8.844;2022-11-15T16:15:43;3.53;;;2.50;;
23304;SDS011;11821;51.456;8.844;2022-11-15T16:18:12;22.15;;;15.27;;
23304;SDS011;11821;51.456;8.844;2022-11-15T16:20:42;9.18;;;7.60;;
23304;SDS011;11821;51.456;8.844;2022-11-15T16:23:14;4.68;;;3.53;;
23304;SDS011;11821;51.456;8.844;2022-11-15T16:25:52;5.80;;;3.30;;
23304;SDS011;11821;51.456;8.844;2022-11-15T16:28:24;2.35;;;2.15;;
23304;SDS011;11821;51.456;8.844;2022-11-15T16:30:59;2.88;;;2.00;;
23304;SDS011;11821;51.456;8.844;2022-11-15T16:33:30;4.20;;;2.90;;
23304;SDS011;11821;51.456;8.844;2022-11-15T16:35:57;3.92;;;2.17;;
23304;SDS011;11821;51.456;8.844;2022-11-15T16:38:23;2.38;;;2.03;;
23304;SDS011;11821;51.456;8.844;2022-11-15T16:40:49;3.25;;;1.67;;
23304;SDS011;11821;51.456;8.844;2022-11-15T16:43:16;3.15;;;1.65;;
23304;SDS011;11821;51.456;8.844;2022-11-15T16:45:42;2.53;;;2.17;;
23304;SDS011;11821;51.456;8.844;2022-11-15T16:48:21;4.07;;;2.75;;
23304;SDS011;11821;51.456;8.844;2022-11-15T16:50:49;2.45;;;1.90;;
23304;SDS011;11821;51.456;8.844;2022-11-15T16:53:19;2.95;;;2.10;;
23304;SDS011;11821;51.456;8.844;2022-11-15T16:55:47;4.80;;;3.20;;
23304;SDS011;11821;51.456;8.844;2022-11-15T16:58:13;4.13;;;3.40;;
23304;SDS011;11821;51.456;8.844;2022-11-15T17:00:39;6.60;;;4.88;;
23304;SDS011;11821;51.456;8.844;2022-11-15T17:03:06;9.02;;;6.22;;
23304;SDS011;11821;51.456;8.844;2022-11-15T17:05:32;4.15;;;3.75;;
23304;SDS011;11821;51.456;8.844;2022-11-15T17:07:58;6.70;;;4.75;;
23304;SDS011;11821;51.456;8.844;2022-11-15T17:10:25;4.57;;;4.15;;
23304;SDS011;11821;51.456;8.844;2022-11-15T17:12:52;4.50;;;3.00;;
23304;SDS011;11821;51.456;8.844;2022-11-15T17:15:19;3.10;;;2.80;;
23304;SDS011;11821;51.456;8.844;2022-11-15T17:17:52;4.15;;;2.90;;
23304;SDS011;11821;51.456;8.844;2022-11-15T17:20:20;3.92;;;3.42;;
23304;SDS011;11821;51.456;8.844;2022-11-15T17:22:48;5.53;;;4.78;;
23304;SDS011;11821;51.456;8.844;2022-11-15T17:25:14;7.07;;;3.13;;
23304;SDS011;11821;51.456;8.844;2022-11-15T17:27:41;3.92;;;3.05;;
23304;SDS011;11821;51.456;8.844;2022-11-15T17:30:07;5.18;;;2.85;;
23304;SDS011;11821;51.456;8.844;2022-11-15T17:32:35;4.13;;;3.45;;
23304;SDS011;11821;51.456;8.844;2022-11-15T17:35:04;13.57;;;11.38;;
23304;SDS011;11821;51.456;8.844;2022-11-15T17:37:34;5.88;;;5.28;;
23304;SDS011;11821;51.456;8.844;2022-11-15T17:40:01;12.20;;;10.95;;
23304;SDS011;11821;51.456;8.844;2022-11-15T17:42:27;8.57;;;7.78;;
23304;SDS011;11821;51.456;8.844;2022-11-15T17:44:53;8.10;;;7.03;;
23304;SDS011;11821;51.456;8.844;2022-11-15T17:47:19;6.88;;;6.22;;
23304;SDS011;11821;51.456;8.844;2022-11-15T17:49:46;11.77;;;10.57;;
23304;SDS011;11821;51.456;8.844;2022-11-15T17:52:12;8.15;;;7.30;;
23304;SDS011;11821;51.456;8.844;2022-11-15T17:54:38;9.20;;;6.75;;
23304;SDS011;11821;51.456;8.844;2022-11-15T17:57:04;6.78;;;4.95;;
23304;SDS011;11821;51.456;8.844;2022-11-15T17:59:30;5.25;;;4.47;;
23304;SDS011;11821;51.456;8.844;2022-11-15T18:01:56;10.02;;;8.63;;
23304;SDS011;11821;51.456;8.844;2022-11-15T18:04:23;8.20;;;7.10;;
23304;SDS011;11821;51.456;8.844;2022-11-15T18:06:56;11.23;;;7.72;;
23304;SDS011;11821;51.456;8.844;2022-11-15T18:09:22;7.72;;;6.30;;
23304;SDS011;11821;51.456;8.844;2022-11-15T18:11:50;6.45;;;5.80;;
23304;SDS011;11821;51.456;8.844;2022-11-15T18:14:18;12.45;;;7.93;;
23304;SDS011;11821;51.456;8.844;2022-11-15T18:16:44;9.20;;;7.85;;
23304;SDS011;11821;51.456;8.844;2022-11-15T18:19:11;9.75;;;7.78;;
23304;SDS011;11821;51.456;8.844;2022-11-15T18:21:40;6.47;;;4.20;;
23304;SDS011;11821;51.456;8.844;2022-11-15T18:24:29;11.02;;;6.80;;
23304;SDS011;11821;51.456;8.844;2022-11-15T18:26:58;10.02;;;7.90;;
23304;SDS011;11821;51.456;8.844;2022-11-15T18:29:25;10.15;;;7.38;;
23304;SDS011;11821;51.456;8.844;2022-11-15T18:31:52;6.97;;;5.05;;
23304;SDS011;11821;51.456;8.844;2022-11-15T18:34:24;7.40;;;6.47;;